sensor_id;sensor_type;location;lat;lon;timestamp;P1;durP1;ratioP1;P2;durP2;ratioP2
61397;SDS011;47267;48.130;-2.040;2023-12-20T00:00:25;2.92;;;0.80;;
61397;SDS011;47267;48.130;-2.040;2023-12-20T00:02:51;2.70;;;1.00;;
61397;SDS011;47267;48.130;-2.040;2023-12-20T00:05:16;2.58;;;0.90;;
61397;SDS011;47267;48.130;-2.040;2023-12-20T00:07:42;2.17;;;0.90;;
61397;SDS011;47267;48.130;-2.040;2023-12-20T00:10:09;3.30;;;0.90;;
61397;SDS011;47267;48.130;-2.040;2023-12-20T00:12:35;3.15;;;1.10;;
61397;SDS011;47267;48.130;-2.040;2023-12-20T00:15:00;2.30;;;0.80;;
61397;SDS011;47267;48.130;-2.040;2023-12-20T00:17:26;3.47;;;0.82;;
61397;SDS011;47267;48.130;-2.040;2023-12-20T00:19:52;2.72;;;0.90;;
61397;SDS011;47267;48.130;-2.040;2023-12-20T00:22:17;2.38;;;0.90;;
61397;SDS011;47267;48.130;-2.040;2023-12-20T00:24:43;2.70;;;1.05;;
61397;SDS011;47267;48.130;-2.040;2023-12-20T00:27:09;2.30;;;0.80;;
61397;SDS011;47267;48.130;-2.040;2023-12-20T00:29:34;2.58;;;0.70;;
61397;SDS011;47267;48.130;-2.040;2023-12-20T00:32:00;1.92;;;0.80;;
61397;SDS011;47267;48.130;-2.040;2023-12-20T00:34:26;2.10;;;0.80;;
61397;SDS011;47267;48.130;-2.040;2023-12-20T00:36:51;2.75;;;0.80;;
61397;SDS011;47267;48.130;-2.040;2023-12-20T00:39:17;2.22;;;0.60;;
61397;SDS011;47267;48.130;-2.040;2023-12-20T00:41:43;1.88;;;0.80;;
61397;SDS011;47267;48.130;-2.040;2023-12-20T00:44:08;2.03;;;0.93;;
61397;SDS011;47267;48.130;-2.040;2023-12-20T00:46:34;2.47;;;0.80;;
61397;SDS011;47267;48.130;-2.040;2023-12-20T00:48:59;1.50;;;0.80;;
61397;SDS011;47267;48.130;-2.040;2023-12-20T00:51:25;2.67;;;1.10;;
61397;SDS011;47267;48.130;-2.040;2023-12-20T00:53:51;1.83;;;0.80;;
61397;SDS011;47267;48.130;-2.040;2023-12-20T00:56:19;1.77;;;0.80;;
61397;SDS011;47267;48.130;-2.040;2023-12-20T00:58:45;2.55;;;0.90;;
61397;SDS011;47267;48.130;-2.040;2023-12-20T01:01:11;2.08;;;0.80;;
61397;SDS011;47267;48.130;-2.040;2023-12-20T01:03:37;2.00;;;0.90;;
61397;SDS011;47267;48.130;-2.040;2023-12-20T01:06:03;2.88;;;1.02;;
61397;SDS011;47267;48.130;-2.040;2023-12-20T01:08:30;2.22;;;0.90;;
61397;SDS011;47267;48.130;-2.040;2023-12-20T01:10:56;2.78;;;0.88;;
61397;SDS011;47267;48.130;-2.040;2023-12-20T01:13:21;1.85;;;0.93;;
61397;SDS011;47267;48.130;-2.040;2023-12-20T01:15:47;1.75;;;0.80;;
61397;SDS011;47267;48.130;-2.040;2023-12-20T01:18:13;3.05;;;0.90;;
61397;SDS011;47267;48.130;-2.040;2023-12-20T01:20:39;2.95;;;0.90;;
61397;SDS011;47267;48.130;-2.040;2023-12-20T01:23:05;2.67;;;0.95;;
61397;SDS011;47267;48.130;-2.040;2023-12-20T01:25:31;1.50;;;0.60;;
61397;SDS011;47267;48.130;-2.040;2023-12-20T01:27:56;1.98;;;0.80;;
61397;SDS011;47267;48.130;-2.040;2023-12-20T01:30:22;2.05;;;0.70;;
61397;SDS011;47267;48.130;-2.040;2023-12-20T01:32:49;2.85;;;0.93;;
61397;SDS011;47267;48.130;-2.040;2023-12-20T01:35:14;1.80;;;0.93;;
61397;SDS011;47267;48.130;-2.040;2023-12-20T01:37:40;2.50;;;0.80;;
61397;SDS011;47267;48.130;-2.040;2023-12-20T01:40:06;1.73;;;0.80;;
61397;SDS011;47267;48.130;-2.040;2023-12-20T01:42:33;2.88;;;0.80;;
61397;SDS011;47267;48.130;-2.040;2023-12-20T01:44:58;2.35;;;1.00;;
61397;SDS011;47267;48.130;-2.040;2023-12-20T01:47:24;2.70;;;1.00;;
61397;SDS011;47267;48.130;-2.040;2023-12-20T01:49:52;2.15;;;0.80;;
61397;SDS011;47267;48.130;-2.040;2023-12-20T01:52:18;1.60;;;0.80;;
61397;SDS011;47267;48.130;-2.040;2023-12-20T01:54:45;2.55;;;0.85;;
61397;SDS011;47267;48.130;-2.040;2023-12-20T01:57:12;1.40;;;0.80;;
61397;SDS011;47267;48.130;-2.040;2023-12-20T01:59:39;2.08;;;0.73;;
61397;SDS011;47267;48.130;-2.040;2023-12-20T02:02:05;1.80;;;0.70;;
61397;SDS011;47267;48.130;-2.040;2023-12-20T02:04:32;2.08;;;0.65;;
61397;SDS011;47267;48.130;-2.040;2023-12-20T02:06:58;2.50;;;0.90;;
61397;SDS011;47267;48.130;-2.040;2023-12-20T02:09:24;3.17;;;1.00;;
61397;SDS011;47267;48.130;-2.040;2023-12-20T02:11:50;2.28;;;0.75;;
61397;SDS011;47267;48.130;-2.040;2023-12-20T02:14:16;2.33;;;0.90;;
61397;SDS011;47267;48.130;-2.040;2023-12-20T02:16:42;2.58;;;0.85;;
61397;SDS011;47267;48.130;-2.040;2023-12-20T02:19:13;2.28;;;0.80;;
61397;SDS011;47267;48.130;-2.040;2023-12-20T02:21:40;1.33;;;0.80;;
61397;SDS011;47267;48.130;-2.040;2023-12-20T02:24:05;1.67;;;0.88;;
61397;SDS011;47267;48.130;-2.040;2023-12-20T02:26:34;2.58;;;1.00;;
61397;SDS011;47267;48.130;-2.040;2023-12-20T02:29:00;2.20;;;0.80;;
61397;SDS011;47267;48.130;-2.040;2023-12-20T02:31:26;1.88;;;0.80;;
61397;SDS011;47267;48.130;-2.040;2023-12-20T02:33:52;1.45;;;0.77;;
61397;SDS011;47267;48.130;-2.040;2023-12-20T02:36:17;3.50;;;0.90;;
61397;SDS011;47267;48.130;-2.040;2023-12-20T02:38:43;1.48;;;0.75;;
61397;SDS011;47267;48.130;-2.040;2023-12-20T02:41:09;2.85;;;0.90;;
61397;SDS011;47267;48.130;-2.040;2023-12-20T02:43:34;1.65;;;0.60;;
61397;SDS011;47267;48.130;-2.040;2023-12-20T02:46:00;1.92;;;0.60;;
61397;SDS011;47267;48.130;-2.040;2023-12-20T02:48:25;1.55;;;0.70;;
61397;SDS011;47267;48.130;-2.040;2023-12-20T02:50:51;1.35;;;0.65;;
61397;SDS011;47267;48.130;-2.040;2023-12-20T02:53:17;2.45;;;0.80;;
61397;SDS011;47267;48.130;-2.040;2023-12-20T02:55:43;2.08;;;1.00;;
61397;SDS011;47267;48.130;-2.040;2023-12-20T02:58:08;1.35;;;0.50;;
61397;SDS011;47267;48.130;-2.040;2023-12-20T03:00:34;1.17;;;0.60;;
61397;SDS011;47267;48.130;-2.040;2023-12-20T03:03:00;1.63;;;0.63;;
61397;SDS011;47267;48.130;-2.040;2023-12-20T03:05:25;2.17;;;0.80;;
61397;SDS011;47267;48.130;-2.040;2023-12-20T03:07:51;1.75;;;0.60;;
61397;SDS011;47267;48.130;-2.040;2023-12-20T03:10:17;1.27;;;0.60;;
61397;SDS011;47267;48.130;-2.040;2023-12-20T03:12:43;1.70;;;0.70;;
61397;SDS011;47267;48.130;-2.040;2023-12-20T03:15:09;2.22;;;0.80;;
61397;SDS011;47267;48.130;-2.040;2023-12-20T03:17:35;2.08;;;0.68;;
61397;SDS011;47267;48.130;-2.040;2023-12-20T03:20:01;2.42;;;0.77;;
61397;SDS011;47267;48.130;-2.040;2023-12-20T03:22:27;1.65;;;0.60;;
61397;SDS011;47267;48.130;-2.040;2023-12-20T03:24:53;2.97;;;0.82;;
61397;SDS011;47267;48.130;-2.040;2023-12-20T03:27:18;2.55;;;0.80;;
61397;SDS011;47267;48.130;-2.040;2023-12-20T03:29:44;2.10;;;0.60;;
61397;SDS011;47267;48.130;-2.040;2023-12-20T03:32:09;1.95;;;0.80;;
61397;SDS011;47267;48.130;-2.040;2023-12-20T03:34:35;1.20;;;0.60;;
61397;SDS011;47267;48.130;-2.040;2023-12-20T03:37:01;1.83;;;0.80;;
61397;SDS011;47267;48.130;-2.040;2023-12-20T03:39:26;1.52;;;0.55;;
61397;SDS011;47267;48.130;-2.040;2023-12-20T03:41:52;1.60;;;0.50;;
61397;SDS011;47267;48.130;-2.040;2023-12-20T03:44:18;2.05;;;0.77;;
61397;SDS011;47267;48.130;-2.040;2023-12-20T03:46:43;2.13;;;0.55;;
61397;SDS011;47267;48.130;-2.040;2023-12-20T03:49:10;1.70;;;0.73;;
61397;SDS011;47267;48.130;-2.040;2023-12-20T03:51:36;0.95;;;0.65;;
61397;SDS011;47267;48.130;-2.040;2023-12-20T03:54:02;2.17;;;0.80;;
61397;SDS011;47267;48.130;-2.040;2023-12-20T03:56:28;2.05;;;0.70;;
61397;SDS011;47267;48.130;-2.040;2023-12-20T03:58:54;1.42;;;0.60;;
61397;SDS011;47267;48.130;-2.040;2023-12-20T04:01:19;2.10;;;0.73;;
61397;SDS011;47267;48.130;-2.040;2023-12-20T04:03:45;1.80;;;0.70;;
61397;SDS011;47267;48.130;-2.040;2023-12-20T04:06:16;2.95;;;0.70;;
61397;SDS011;47267;48.130;-2.040;2023-12-20T04:08:42;1.83;;;0.80;;
61397;SDS011;47267;48.130;-2.040;2023-12-20T04:11:08;2.38;;;0.90;;
61397;SDS011;47267;48.130;-2.040;2023-12-20T04:13:34;1.65;;;0.68;;
61397;SDS011;47267;48.130;-2.040;2023-12-20T04:15:59;1.67;;;0.73;;
61397;SDS011;47267;48.130;-2.040;2023-12-20T04:18:25;1.67;;;0.60;;
61397;SDS011;47267;48.130;-2.040;2023-12-20T04:20:51;1.80;;;0.75;;
61397;SDS011;47267;48.130;-2.040;2023-12-20T04:23:16;2.08;;;0.65;;
61397;SDS011;47267;48.130;-2.040;2023-12-20T04:25:42;1.13;;;0.70;;
61397;SDS011;47267;48.130;-2.040;2023-12-20T04:28:07;1.10;;;0.68;;
61397;SDS011;47267;48.130;-2.040;2023-12-20T04:30:33;0.63;;;0.43;;
61397;SDS011;47267;48.130;-2.040;2023-12-20T04:32:59;2.25;;;0.73;;
61397;SDS011;47267;48.130;-2.040;2023-12-20T04:35:25;1.35;;;0.68;;
61397;SDS011;47267;48.130;-2.040;2023-12-20T04:37:51;2.28;;;0.75;;
61397;SDS011;47267;48.130;-2.040;2023-12-20T04:40:16;2.42;;;0.80;;
61397;SDS011;47267;48.130;-2.040;2023-12-20T04:42:42;1.77;;;0.95;;
61397;SDS011;47267;48.130;-2.040;2023-12-20T04:45:08;1.77;;;0.50;;
61397;SDS011;47267;48.130;-2.040;2023-12-20T04:47:34;1.67;;;0.70;;
61397;SDS011;47267;48.130;-2.040;2023-12-20T04:49:59;1.02;;;0.50;;
61397;SDS011;47267;48.130;-2.040;2023-12-20T04:52:25;1.63;;;0.68;;
61397;SDS011;47267;48.130;-2.040;2023-12-20T04:54:51;1.42;;;0.60;;
61397;SDS011;47267;48.130;-2.040;2023-12-20T04:57:17;1.23;;;0.65;;
61397;SDS011;47267;48.130;-2.040;2023-12-20T04:59:42;2.00;;;0.70;;
61397;SDS011;47267;48.130;-2.040;2023-12-20T05:02:08;1.85;;;0.50;;
61397;SDS011;47267;48.130;-2.040;2023-12-20T05:04:34;1.70;;;0.60;;
61397;SDS011;47267;48.130;-2.040;2023-12-20T05:07:00;2.20;;;0.70;;
61397;SDS011;47267;48.130;-2.040;2023-12-20T05:09:25;1.80;;;0.50;;
61397;SDS011;47267;48.130;-2.040;2023-12-20T05:11:51;1.15;;;0.52;;
61397;SDS011;47267;48.130;-2.040;2023-12-20T05:14:17;0.73;;;0.50;;
61397;SDS011;47267;48.130;-2.040;2023-12-20T05:16:42;1.25;;;0.50;;
61397;SDS011;47267;48.130;-2.040;2023-12-20T05:19:08;2.10;;;0.80;;
61397;SDS011;47267;48.130;-2.040;2023-12-20T05:21:34;1.98;;;0.70;;
61397;SDS011;47267;48.130;-2.040;2023-12-20T05:23:59;1.30;;;0.60;;
61397;SDS011;47267;48.130;-2.040;2023-12-20T05:26:25;1.02;;;0.60;;
61397;SDS011;47267;48.130;-2.040;2023-12-20T05:28:51;0.98;;;0.60;;
61397;SDS011;47267;48.130;-2.040;2023-12-20T05:31:17;1.48;;;0.68;;
61397;SDS011;47267;48.130;-2.040;2023-12-20T05:33:43;1.05;;;0.52;;
61397;SDS011;47267;48.130;-2.040;2023-12-20T05:36:09;2.83;;;0.95;;
61397;SDS011;47267;48.130;-2.040;2023-12-20T05:38:36;1.10;;;0.63;;
61397;SDS011;47267;48.130;-2.040;2023-12-20T05:41:02;1.85;;;0.90;;
61397;SDS011;47267;48.130;-2.040;2023-12-20T05:43:28;1.58;;;0.88;;
61397;SDS011;47267;48.130;-2.040;2023-12-20T05:45:54;2.15;;;0.82;;
61397;SDS011;47267;48.130;-2.040;2023-12-20T05:48:20;3.20;;;1.02;;
61397;SDS011;47267;48.130;-2.040;2023-12-20T05:50:45;1.27;;;0.70;;
61397;SDS011;47267;48.130;-2.040;2023-12-20T05:53:11;0.90;;;0.60;;
61397;SDS011;47267;48.130;-2.040;2023-12-20T05:55:37;1.08;;;0.50;;
61397;SDS011;47267;48.130;-2.040;2023-12-20T05:58:02;1.95;;;0.50;;
61397;SDS011;47267;48.130;-2.040;2023-12-20T06:00:28;1.55;;;0.55;;
61397;SDS011;47267;48.130;-2.040;2023-12-20T06:02:54;1.30;;;0.70;;
61397;SDS011;47267;48.130;-2.040;2023-12-20T06:05:19;2.08;;;0.52;;
61397;SDS011;47267;48.130;-2.040;2023-12-20T06:07:45;1.83;;;0.82;;
61397;SDS011;47267;48.130;-2.040;2023-12-20T06:10:13;1.42;;;0.65;;
61397;SDS011;47267;48.130;-2.040;2023-12-20T06:12:39;1.88;;;0.80;;
61397;SDS011;47267;48.130;-2.040;2023-12-20T06:15:05;2.30;;;0.70;;
61397;SDS011;47267;48.130;-2.040;2023-12-20T06:17:31;1.10;;;0.60;;
61397;SDS011;47267;48.130;-2.040;2023-12-20T06:19:57;2.55;;;0.60;;
61397;SDS011;47267;48.130;-2.040;2023-12-20T06:22:23;1.92;;;0.70;;
61397;SDS011;47267;48.130;-2.040;2023-12-20T06:24:48;2.35;;;0.90;;
61397;SDS011;47267;48.130;-2.040;2023-12-20T06:27:14;2.42;;;0.90;;
61397;SDS011;47267;48.130;-2.040;2023-12-20T06:29:40;2.85;;;0.98;;
61397;SDS011;47267;48.130;-2.040;2023-12-20T06:32:06;1.92;;;0.80;;
61397;SDS011;47267;48.130;-2.040;2023-12-20T06:34:32;2.00;;;1.00;;
61397;SDS011;47267;48.130;-2.040;2023-12-20T06:36:57;2.47;;;0.93;;
61397;SDS011;47267;48.130;-2.040;2023-12-20T06:39:23;4.60;;;1.17;;
61397;SDS011;47267;48.130;-2.040;2023-12-20T06:41:49;3.22;;;1.00;;
61397;SDS011;47267;48.130;-2.040;2023-12-20T06:44:14;5.10;;;1.00;;
61397;SDS011;47267;48.130;-2.040;2023-12-20T06:46:40;4.43;;;1.40;;
61397;SDS011;47267;48.130;-2.040;2023-12-20T06:49:06;3.20;;;1.10;;
61397;SDS011;47267;48.130;-2.040;2023-12-20T06:51:31;3.75;;;1.35;;
61397;SDS011;47267;48.130;-2.040;2023-12-20T06:53:57;3.63;;;1.23;;
61397;SDS011;47267;48.130;-2.040;2023-12-20T06:56:23;5.85;;;1.90;;
61397;SDS011;47267;48.130;-2.040;2023-12-20T06:58:48;6.60;;;1.67;;
61397;SDS011;47267;48.130;-2.040;2023-12-20T07:01:14;5.82;;;1.75;;
61397;SDS011;47267;48.130;-2.040;2023-12-20T07:03:41;6.88;;;2.33;;
61397;SDS011;47267;48.130;-2.040;2023-12-20T07:06:07;3.63;;;1.65;;
61397;SDS011;47267;48.130;-2.040;2023-12-20T07:08:33;5.38;;;2.10;;
61397;SDS011;47267;48.130;-2.040;2023-12-20T07:10:59;6.00;;;2.00;;
61397;SDS011;47267;48.130;-2.040;2023-12-20T07:13:25;7.05;;;2.22;;
61397;SDS011;47267;48.130;-2.040;2023-12-20T07:15:50;4.50;;;1.98;;
61397;SDS011;47267;48.130;-2.040;2023-12-20T07:18:16;7.95;;;2.30;;
61397;SDS011;47267;48.130;-2.040;2023-12-20T07:20:42;5.30;;;1.90;;
61397;SDS011;47267;48.130;-2.040;2023-12-20T07:23:08;5.72;;;2.15;;
61397;SDS011;47267;48.130;-2.040;2023-12-20T07:25:34;4.82;;;1.60;;
61397;SDS011;47267;48.130;-2.040;2023-12-20T07:27:59;3.88;;;2.03;;
61397;SDS011;47267;48.130;-2.040;2023-12-20T07:30:25;4.43;;;1.80;;
61397;SDS011;47267;48.130;-2.040;2023-12-20T07:32:51;8.82;;;2.00;;
61397;SDS011;47267;48.130;-2.040;2023-12-20T07:35:18;3.53;;;1.63;;
61397;SDS011;47267;48.130;-2.040;2023-12-20T07:37:43;4.32;;;1.90;;
61397;SDS011;47267;48.130;-2.040;2023-12-20T07:40:09;3.55;;;1.55;;
61397;SDS011;47267;48.130;-2.040;2023-12-20T07:42:35;5.78;;;2.05;;
61397;SDS011;47267;48.130;-2.040;2023-12-20T07:45:01;5.80;;;1.67;;
61397;SDS011;47267;48.130;-2.040;2023-12-20T07:47:27;7.57;;;2.00;;
61397;SDS011;47267;48.130;-2.040;2023-12-20T07:49:53;6.18;;;1.90;;
61397;SDS011;47267;48.130;-2.040;2023-12-20T07:52:19;6.18;;;1.90;;
61397;SDS011;47267;48.130;-2.040;2023-12-20T07:54:45;11.43;;;2.13;;
61397;SDS011;47267;48.130;-2.040;2023-12-20T07:57:11;4.00;;;1.70;;
61397;SDS011;47267;48.130;-2.040;2023-12-20T07:59:37;4.18;;;1.60;;
61397;SDS011;47267;48.130;-2.040;2023-12-20T08:02:03;3.83;;;1.75;;
61397;SDS011;47267;48.130;-2.040;2023-12-20T08:04:28;3.35;;;1.50;;
61397;SDS011;47267;48.130;-2.040;2023-12-20T08:06:54;6.35;;;1.80;;
61397;SDS011;47267;48.130;-2.040;2023-12-20T08:09:20;5.15;;;1.70;;
61397;SDS011;47267;48.130;-2.040;2023-12-20T08:11:46;4.63;;;1.42;;
61397;SDS011;47267;48.130;-2.040;2023-12-20T08:14:13;6.22;;;2.00;;
61397;SDS011;47267;48.130;-2.040;2023-12-20T08:16:38;3.92;;;1.60;;
61397;SDS011;47267;48.130;-2.040;2023-12-20T08:19:04;3.60;;;1.80;;
61397;SDS011;47267;48.130;-2.040;2023-12-20T08:21:30;4.18;;;1.45;;
61397;SDS011;47267;48.130;-2.040;2023-12-20T08:23:55;4.68;;;1.58;;
61397;SDS011;47267;48.130;-2.040;2023-12-20T08:26:21;4.22;;;1.67;;
61397;SDS011;47267;48.130;-2.040;2023-12-20T08:28:48;4.20;;;1.38;;
61397;SDS011;47267;48.130;-2.040;2023-12-20T08:31:15;3.78;;;1.35;;
61397;SDS011;47267;48.130;-2.040;2023-12-20T08:33:42;4.43;;;1.40;;
61397;SDS011;47267;48.130;-2.040;2023-12-20T08:36:12;4.05;;;1.50;;
61397;SDS011;47267;48.130;-2.040;2023-12-20T08:38:38;5.40;;;1.55;;
61397;SDS011;47267;48.130;-2.040;2023-12-20T08:41:04;2.72;;;1.38;;
61397;SDS011;47267;48.130;-2.040;2023-12-20T08:43:31;3.55;;;1.55;;
61397;SDS011;47267;48.130;-2.040;2023-12-20T08:45:57;3.35;;;1.25;;
61397;SDS011;47267;48.130;-2.040;2023-12-20T08:48:23;3.17;;;1.45;;
61397;SDS011;47267;48.130;-2.040;2023-12-20T08:50:48;3.63;;;1.50;;
61397;SDS011;47267;48.130;-2.040;2023-12-20T08:53:16;4.03;;;1.70;;
61397;SDS011;47267;48.130;-2.040;2023-12-20T08:55:43;4.60;;;1.52;;
61397;SDS011;47267;48.130;-2.040;2023-12-20T08:58:08;3.08;;;1.20;;
61397;SDS011;47267;48.130;-2.040;2023-12-20T09:00:34;2.35;;;1.10;;
61397;SDS011;47267;48.130;-2.040;2023-12-20T09:03:03;2.53;;;1.30;;
61397;SDS011;47267;48.130;-2.040;2023-12-20T09:05:29;2.72;;;1.13;;
61397;SDS011;47267;48.130;-2.040;2023-12-20T09:07:55;2.40;;;1.23;;
61397;SDS011;47267;48.130;-2.040;2023-12-20T09:10:20;3.88;;;1.50;;
61397;SDS011;47267;48.130;-2.040;2023-12-20T09:12:49;2.35;;;1.23;;
61397;SDS011;47267;48.130;-2.040;2023-12-20T09:15:25;3.38;;;1.30;;
61397;SDS011;47267;48.130;-2.040;2023-12-20T09:17:52;3.00;;;1.23;;
61397;SDS011;47267;48.130;-2.040;2023-12-20T09:20:18;2.80;;;1.13;;
61397;SDS011;47267;48.130;-2.040;2023-12-20T09:22:45;4.43;;;1.02;;
61397;SDS011;47267;48.130;-2.040;2023-12-20T09:25:11;3.78;;;1.27;;
61397;SDS011;47267;48.130;-2.040;2023-12-20T09:27:37;4.47;;;1.60;;
61397;SDS011;47267;48.130;-2.040;2023-12-20T09:30:03;3.38;;;1.27;;
61397;SDS011;47267;48.130;-2.040;2023-12-20T09:32:30;2.60;;;1.17;;
61397;SDS011;47267;48.130;-2.040;2023-12-20T09:34:56;4.07;;;1.40;;
61397;SDS011;47267;48.130;-2.040;2023-12-20T09:37:22;3.22;;;1.08;;
61397;SDS011;47267;48.130;-2.040;2023-12-20T09:39:51;3.72;;;1.25;;
61397;SDS011;47267;48.130;-2.040;2023-12-20T09:42:17;2.22;;;1.02;;
61397;SDS011;47267;48.130;-2.040;2023-12-20T09:44:50;2.95;;;1.00;;
61397;SDS011;47267;48.130;-2.040;2023-12-20T09:47:16;2.25;;;1.15;;
61397;SDS011;47267;48.130;-2.040;2023-12-20T09:49:45;3.35;;;1.10;;
61397;SDS011;47267;48.130;-2.040;2023-12-20T09:52:11;3.05;;;1.10;;
61397;SDS011;47267;48.130;-2.040;2023-12-20T09:54:39;2.35;;;1.13;;
61397;SDS011;47267;48.130;-2.040;2023-12-20T09:57:06;4.10;;;1.20;;
61397;SDS011;47267;48.130;-2.040;2023-12-20T09:59:31;3.60;;;0.98;;
61397;SDS011;47267;48.130;-2.040;2023-12-20T10:01:57;11.90;;;1.73;;
61397;SDS011;47267;48.130;-2.040;2023-12-20T10:04:26;2.30;;;1.10;;
61397;SDS011;47267;48.130;-2.040;2023-12-20T10:06:52;2.88;;;0.90;;
61397;SDS011;47267;48.130;-2.040;2023-12-20T10:09:18;5.03;;;1.45;;
61397;SDS011;47267;48.130;-2.040;2023-12-20T10:11:43;2.45;;;1.02;;
61397;SDS011;47267;48.130;-2.040;2023-12-20T10:14:10;3.63;;;1.35;;
61397;SDS011;47267;48.130;-2.040;2023-12-20T10:16:36;2.05;;;1.00;;
61397;SDS011;47267;48.130;-2.040;2023-12-20T10:19:01;2.95;;;1.00;;
61397;SDS011;47267;48.130;-2.040;2023-12-20T10:21:27;2.00;;;1.00;;
61397;SDS011;47267;48.130;-2.040;2023-12-20T10:23:54;3.10;;;1.17;;
61397;SDS011;47267;48.130;-2.040;2023-12-20T10:26:23;4.57;;;1.38;;
61397;SDS011;47267;48.130;-2.040;2023-12-20T10:34:00;3.03;;;1.25;;
61397;SDS011;47267;48.130;-2.040;2023-12-20T10:36:27;1.58;;;0.85;;
61397;SDS011;47267;48.130;-2.040;2023-12-20T10:38:55;2.72;;;1.00;;
61397;SDS011;47267;48.130;-2.040;2023-12-20T10:41:25;3.25;;;1.17;;
61397;SDS011;47267;48.130;-2.040;2023-12-20T10:43:59;2.33;;;1.05;;
61397;SDS011;47267;48.130;-2.040;2023-12-20T10:46:27;2.85;;;1.08;;
61397;SDS011;47267;48.130;-2.040;2023-12-20T10:48:56;2.28;;;0.90;;
61397;SDS011;47267;48.130;-2.040;2023-12-20T10:51:22;2.78;;;0.95;;
61397;SDS011;47267;48.130;-2.040;2023-12-20T10:53:51;1.98;;;1.00;;
61397;SDS011;47267;48.130;-2.040;2023-12-20T10:56:18;3.38;;;0.80;;
61397;SDS011;47267;48.130;-2.040;2023-12-20T10:58:45;3.05;;;1.00;;
61397;SDS011;47267;48.130;-2.040;2023-12-20T11:01:15;2.45;;;1.20;;
61397;SDS011;47267;48.130;-2.040;2023-12-20T11:03:48;3.35;;;1.13;;
61397;SDS011;47267;48.130;-2.040;2023-12-20T11:17:09;1.98;;;0.93;;
61397;SDS011;47267;48.130;-2.040;2023-12-20T11:19:36;2.55;;;1.20;;
61397;SDS011;47267;48.130;-2.040;2023-12-20T11:22:03;2.33;;;1.08;;
61397;SDS011;47267;48.130;-2.040;2023-12-20T11:24:30;3.50;;;0.95;;
61397;SDS011;47267;48.130;-2.040;2023-12-20T11:26:59;4.28;;;1.20;;
61397;SDS011;47267;48.130;-2.040;2023-12-20T11:32:02;2.42;;;0.98;;
61397;SDS011;47267;48.130;-2.040;2023-12-20T11:34:48;4.05;;;1.05;;
61397;SDS011;47267;48.130;-2.040;2023-12-20T11:37:14;3.85;;;1.30;;
61397;SDS011;47267;48.130;-2.040;2023-12-20T11:39:40;3.97;;;1.25;;
61397;SDS011;47267;48.130;-2.040;2023-12-20T11:42:07;2.67;;;0.95;;
61397;SDS011;47267;48.130;-2.040;2023-12-20T11:44:36;3.72;;;1.20;;
61397;SDS011;47267;48.130;-2.040;2023-12-20T11:47:01;3.38;;;1.30;;
61397;SDS011;47267;48.130;-2.040;2023-12-20T11:49:27;4.65;;;1.38;;
61397;SDS011;47267;48.130;-2.040;2023-12-20T11:51:55;2.15;;;0.73;;
61397;SDS011;47267;48.130;-2.040;2023-12-20T11:54:22;3.03;;;1.10;;
61397;SDS011;47267;48.130;-2.040;2023-12-20T11:56:47;5.15;;;1.50;;
61397;SDS011;47267;48.130;-2.040;2023-12-20T11:59:13;2.45;;;1.00;;
61397;SDS011;47267;48.130;-2.040;2023-12-20T12:01:40;2.28;;;0.80;;
61397;SDS011;47267;48.130;-2.040;2023-12-20T12:04:12;1.95;;;0.80;;
61397;SDS011;47267;48.130;-2.040;2023-12-20T12:06:39;2.40;;;0.90;;
61397;SDS011;47267;48.130;-2.040;2023-12-20T12:09:04;2.22;;;1.00;;
61397;SDS011;47267;48.130;-2.040;2023-12-20T12:11:30;2.95;;;1.33;;
61397;SDS011;47267;48.130;-2.040;2023-12-20T12:13:56;2.83;;;0.98;;
61397;SDS011;47267;48.130;-2.040;2023-12-20T12:16:22;2.72;;;1.27;;
61397;SDS011;47267;48.130;-2.040;2023-12-20T12:18:54;4.00;;;1.20;;
61397;SDS011;47267;48.130;-2.040;2023-12-20T12:21:21;2.17;;;0.90;;
61397;SDS011;47267;48.130;-2.040;2023-12-20T12:23:47;1.92;;;0.85;;
61397;SDS011;47267;48.130;-2.040;2023-12-20T12:26:13;3.55;;;0.95;;
61397;SDS011;47267;48.130;-2.040;2023-12-20T12:28:42;4.38;;;0.90;;
61397;SDS011;47267;48.130;-2.040;2023-12-20T12:31:09;3.60;;;1.20;;
61397;SDS011;47267;48.130;-2.040;2023-12-20T12:33:40;2.70;;;1.08;;
61397;SDS011;47267;48.130;-2.040;2023-12-20T12:36:07;2.88;;;1.10;;
61397;SDS011;47267;48.130;-2.040;2023-12-20T12:38:32;2.53;;;0.93;;
61397;SDS011;47267;48.130;-2.040;2023-12-20T12:40:59;2.38;;;0.90;;
61397;SDS011;47267;48.130;-2.040;2023-12-20T12:43:25;8.20;;;0.98;;
61397;SDS011;47267;48.130;-2.040;2023-12-20T12:45:51;2.65;;;1.00;;
61397;SDS011;47267;48.130;-2.040;2023-12-20T12:48:18;5.97;;;1.30;;
61397;SDS011;47267;48.130;-2.040;2023-12-20T12:50:47;3.85;;;1.30;;
61397;SDS011;47267;48.130;-2.040;2023-12-20T12:53:13;1.88;;;0.93;;
61397;SDS011;47267;48.130;-2.040;2023-12-20T12:55:38;2.22;;;0.90;;
61397;SDS011;47267;48.130;-2.040;2023-12-20T12:58:04;3.38;;;1.23;;
61397;SDS011;47267;48.130;-2.040;2023-12-20T13:00:30;2.30;;;0.98;;
61397;SDS011;47267;48.130;-2.040;2023-12-20T13:02:55;3.40;;;1.20;;
61397;SDS011;47267;48.130;-2.040;2023-12-20T13:05:21;3.05;;;0.75;;
61397;SDS011;47267;48.130;-2.040;2023-12-20T13:07:47;2.95;;;0.90;;
61397;SDS011;47267;48.130;-2.040;2023-12-20T13:10:13;2.85;;;1.13;;
61397;SDS011;47267;48.130;-2.040;2023-12-20T13:12:41;3.13;;;1.27;;
61397;SDS011;47267;48.130;-2.040;2023-12-20T13:15:07;4.43;;;1.02;;
61397;SDS011;47267;48.130;-2.040;2023-12-20T13:17:34;6.85;;;1.27;;
61397;SDS011;47267;48.130;-2.040;2023-12-20T13:20:00;3.60;;;1.30;;
61397;SDS011;47267;48.130;-2.040;2023-12-20T13:22:26;4.10;;;1.10;;
61397;SDS011;47267;48.130;-2.040;2023-12-20T13:24:51;3.15;;;1.20;;
61397;SDS011;47267;48.130;-2.040;2023-12-20T13:27:17;2.90;;;0.90;;
61397;SDS011;47267;48.130;-2.040;2023-12-20T13:29:43;2.53;;;0.88;;
61397;SDS011;47267;48.130;-2.040;2023-12-20T13:32:08;2.50;;;0.90;;
61397;SDS011;47267;48.130;-2.040;2023-12-20T13:34:34;2.28;;;1.00;;
61397;SDS011;47267;48.130;-2.040;2023-12-20T13:37:00;3.42;;;1.17;;
61397;SDS011;47267;48.130;-2.040;2023-12-20T13:39:25;2.33;;;1.00;;
61397;SDS011;47267;48.130;-2.040;2023-12-20T13:41:51;4.30;;;1.00;;
61397;SDS011;47267;48.130;-2.040;2023-12-20T13:44:17;3.95;;;1.20;;
61397;SDS011;47267;48.130;-2.040;2023-12-20T13:46:43;3.60;;;1.20;;
61397;SDS011;47267;48.130;-2.040;2023-12-20T13:49:08;2.38;;;1.00;;
61397;SDS011;47267;48.130;-2.040;2023-12-20T13:51:34;2.13;;;0.85;;
61397;SDS011;47267;48.130;-2.040;2023-12-20T13:54:00;2.67;;;0.95;;
61397;SDS011;47267;48.130;-2.040;2023-12-20T13:56:25;4.78;;;1.02;;
61397;SDS011;47267;48.130;-2.040;2023-12-20T13:58:51;4.72;;;0.90;;
61397;SDS011;47267;48.130;-2.040;2023-12-20T14:01:17;2.33;;;1.00;;
61397;SDS011;47267;48.130;-2.040;2023-12-20T14:03:42;3.50;;;1.40;;
61397;SDS011;47267;48.130;-2.040;2023-12-20T14:06:08;3.28;;;1.02;;
61397;SDS011;47267;48.130;-2.040;2023-12-20T14:08:34;2.22;;;0.90;;
61397;SDS011;47267;48.130;-2.040;2023-12-20T14:11:01;3.63;;;1.20;;
61397;SDS011;47267;48.130;-2.040;2023-12-20T14:13:26;3.08;;;0.95;;
61397;SDS011;47267;48.130;-2.040;2023-12-20T14:15:52;2.80;;;1.00;;
61397;SDS011;47267;48.130;-2.040;2023-12-20T14:18:19;1.83;;;0.98;;
61397;SDS011;47267;48.130;-2.040;2023-12-20T14:20:47;3.30;;;0.80;;
61397;SDS011;47267;48.130;-2.040;2023-12-20T14:23:13;3.17;;;1.00;;
61397;SDS011;47267;48.130;-2.040;2023-12-20T14:25:41;3.35;;;1.15;;
61397;SDS011;47267;48.130;-2.040;2023-12-20T14:28:07;2.70;;;1.13;;
61397;SDS011;47267;48.130;-2.040;2023-12-20T14:30:33;4.55;;;1.20;;
61397;SDS011;47267;48.130;-2.040;2023-12-20T14:33:00;2.45;;;0.90;;
61397;SDS011;47267;48.130;-2.040;2023-12-20T14:35:25;1.63;;;0.75;;
61397;SDS011;47267;48.130;-2.040;2023-12-20T14:37:51;3.28;;;1.15;;
61397;SDS011;47267;48.130;-2.040;2023-12-20T14:40:18;3.50;;;1.20;;
61397;SDS011;47267;48.130;-2.040;2023-12-20T14:42:44;5.00;;;0.93;;
61397;SDS011;47267;48.130;-2.040;2023-12-20T14:45:10;2.72;;;1.08;;